Time;durP1;ratioP1;P1;durP2;ratioP2;P2;SDS_P1;SDS_P2;PMS_P1;PMS_P2;Temp;Humidity;BMP_temperature;BMP_pressure;BME280_temperature;BME280_humidity;BME280_pressure;Samples;Min_cycle;Max_cycle;Signal;HPM_P1;HPM_P2
2021/08/09 00:00:38;;;;;;;2.63;1.27;;;;;;;19.41;62.21;100875.47;5062006;28;20032;-51
2021/08/09 00:03:04;;;;;;;1.40;1.30;;;;;;;19.40;62.10;100883.59;5056790;28;20016;-51
2021/08/09 00:05:29;;;;;;;2.60;1.30;;;;;;;19.39;62.19;100872.00;5053524;28;20021;-50
2021/08/09 00:07:54;;;;;;;1.60;1.50;;;;;;;19.39;62.41;100879.16;5062519;28;20016;-52
2021/08/09 00:10:20;;;;;;;1.17;1.10;;;;;;;19.39;62.17;100881.84;5060956;28;20047;-51
2021/08/09 00:12:45;;;;;;;1.65;1.17;;;;;;;19.38;62.32;100880.09;5062912;28;20490;-49
2021/08/09 00:15:11;;;;;;;1.48;1.33;;;;;;;19.36;62.26;100878.38;5064930;28;20353;-48
2021/08/09 00:17:36;;;;;;;1.25;1.15;;;;;;;19.36;62.24;100888.19;5065249;28;20060;-49
2021/08/09 00:20:05;;;;;;;1.42;1.33;;;;;;;19.35;62.19;100887.31;5061288;28;20036;-48
2021/08/09 00:22:30;;;;;;;1.30;1.08;;;;;;;19.34;62.20;100890.91;5068440;28;20017;-49
2021/08/09 00:24:56;;;;;;;1.38;1.27;;;;;;;19.33;62.23;100886.53;5061910;28;20028;-49
2021/08/09 00:27:24;;;;;;;1.50;1.40;;;;;;;19.32;62.31;100895.47;5062138;28;20090;-49
2021/08/09 00:29:49;;;;;;;1.35;1.17;;;;;;;19.32;62.30;100897.28;5068079;28;20036;-50
2021/08/09 00:32:14;;;;;;;2.05;1.55;;;;;;;19.30;62.25;100889.31;5063340;28;20016;-50
2021/08/09 00:34:39;;;;;;;1.40;1.30;;;;;;;19.30;62.13;100892.00;5059837;28;20044;-52
2021/08/09 00:37:05;;;;;;;1.70;1.60;;;;;;;19.30;62.34;100893.78;5060962;28;20369;-49
2021/08/09 00:39:30;;;;;;;1.67;1.38;;;;;;;19.29;62.06;100881.34;5061331;28;20116;-52
2021/08/09 00:41:55;;;;;;;1.63;1.52;;;;;;;19.30;62.30;100893.78;5063758;28;20103;-50
2021/08/09 00:44:21;;;;;;;2.35;1.50;;;;;;;19.29;62.28;100892.06;5057988;28;20033;-51
2021/08/09 00:46:46;;;;;;;1.60;1.38;;;;;;;19.28;62.14;100896.56;5066541;28;20493;-49
2021/08/09 00:49:17;;;;;;;1.40;1.27;;;;;;;19.27;62.28;100905.47;5063936;28;20028;-49
2021/08/09 00:51:43;;;;;;;2.10;1.60;;;;;;;19.27;62.27;100901.97;5063093;28;20047;-48
2021/08/09 00:54:12;;;;;;;1.67;1.50;;;;;;;19.25;62.19;100902.03;5035085;28;20480;-48
2021/08/09 00:56:37;;;;;;;1.33;1.23;;;;;;;19.26;62.21;100903.75;5039001;28;20471;-48
2021/08/09 00:59:02;;;;;;;1.45;1.27;;;;;;;19.23;62.20;100894.06;5054318;28;20036;-51
2021/08/09 01:01:28;;;;;;;1.40;1.30;;;;;;;19.22;62.21;100896.81;5057870;28;20033;-48
2021/08/09 01:04:00;;;;;;;1.90;1.48;;;;;;;19.24;62.19;100905.59;5060363;28;20457;-49
2021/08/09 01:06:29;;;;;;;1.55;1.45;;;;;;;19.22;62.12;100905.69;5053036;28;20039;-47
2021/08/09 01:09:16;;;;;;;2.10;1.60;;;;;;;19.22;62.30;100907.50;5057491;28;20451;-48
2021/08/09 01:11:53;;;;;;;1.67;1.58;;;;;;;19.20;62.23;100906.66;5067811;28;20024;-48
2021/08/09 01:14:42;;;;;;;1.88;1.70;;;;;;;19.19;62.20;100921.88;5064683;28;20044;-51
2021/08/09 01:17:10;;;;;;;1.75;1.42;;;;;;;19.20;62.33;100906.66;5056840;28;20082;-48
2021/08/09 01:20:00;;;;;;;1.75;1.65;;;;;;;19.19;62.15;100915.63;5063133;28;20032;-48
2021/08/09 01:22:38;;;;;;;2.15;1.80;;;;;;;19.18;62.28;100917.44;5052667;28;20021;-48
2021/08/09 01:25:22;;;;;;;1.45;1.35;;;;;;;19.17;62.27;100917.53;5064389;28;20483;-48
2021/08/09 01:27:50;;;;;;;3.60;1.52;;;;;;;19.16;62.27;100916.63;5063364;28;20399;-48
2021/08/09 01:30:16;;;;;;;3.55;1.60;;;;;;;19.16;62.23;100913.09;5045453;28;20043;-49
2021/08/09 01:32:46;;;;;;;1.40;1.30;;;;;;;19.15;62.29;100914.91;5048936;28;20471;-49
2021/08/09 01:35:13;;;;;;;1.50;1.40;;;;;;;19.14;62.28;100910.47;5061378;28;20028;-49
2021/08/09 01:37:42;;;;;;;1.65;1.55;;;;;;;19.14;62.38;100921.16;5047448;28;20034;-49
2021/08/09 01:40:11;;;;;;;1.60;1.50;;;;;;;19.13;62.28;100916.75;5065183;28;20021;-51
2021/08/09 01:42:44;;;;;;;1.67;1.58;;;;;;;19.12;62.30;100916.81;5047306;28;20031;-49
2021/08/09 01:45:12;;;;;;;1.95;1.75;;;;;;;19.10;62.26;100917.75;5061719;28;20488;-49
2021/08/09 01:47:43;;;;;;;1.80;1.70;;;;;;;19.09;62.33;100923.16;5067026;28;20408;-50
2021/08/09 01:50:11;;;;;;;1.60;1.50;;;;;;;19.08;62.34;100924.97;5047838;28;20112;-49
2021/08/09 01:52:38;;;;;;;1.83;1.73;;;;;;;19.08;62.28;100919.63;5048224;28;20047;-48
2021/08/09 01:55:04;;;;;;;1.48;1.38;;;;;;;19.08;62.37;100926.78;5048915;28;20041;-49
2021/08/09 01:57:29;;;;;;;1.75;1.65;;;;;;;19.06;62.29;100924.16;5064849;28;20028;-54
2021/08/09 01:59:55;;;;;;;1.90;1.70;;;;;;;19.06;62.40;100924.16;5067621;28;20024;-49
2021/08/09 02:02:27;;;;;;;1.77;1.67;;;;;;;19.05;62.24;100933.09;5047934;28;20021;-51
2021/08/09 02:04:53;;;;;;;1.70;1.60;;;;;;;19.05;62.30;100932.22;5061610;28;20408;-49
2021/08/09 02:07:18;;;;;;;1.60;1.50;;;;;;;19.04;62.43;100935.81;5062734;28;20531;-53
2021/08/09 02:09:47;;;;;;;1.75;1.65;;;;;;;19.03;62.24;100934.94;5054425;28;20025;-49
2021/08/09 02:12:13;;;;;;;1.80;1.70;;;;;;;19.03;62.07;100932.28;5060551;28;20029;-52
2021/08/09 02:14:46;;;;;;;1.80;1.70;;;;;;;19.01;62.27;100931.47;5060197;28;20036;-48
2021/08/09 02:17:14;;;;;;;1.58;1.35;;;;;;;19.00;62.22;100932.41;5066743;28;20476;-49
2021/08/09 02:19:44;;;;;;;2.10;1.25;;;;;;;19.01;62.28;100930.59;5066865;28;20052;-48
2021/08/09 02:22:17;;;;;;;1.60;1.50;;;;;;;18.99;62.34;100936.00;5045723;28;20025;-50
2021/08/09 02:24:58;;;;;;;1.58;1.30;;;;;;;18.99;62.30;100949.38;5064933;28;20033;-48
2021/08/09 02:27:26;;;;;;;1.42;1.33;;;;;;;19.00;62.33;100945.75;5065363;28;20107;-48
2021/08/09 02:29:52;;;;;;;1.48;1.38;;;;;;;18.99;62.55;100938.69;5047661;28;20111;-50
2021/08/09 02:32:20;;;;;;;1.40;1.30;;;;;;;18.98;62.24;100942.28;5044712;28;20597;-49
2021/08/09 02:34:46;;;;;;;1.40;1.30;;;;;;;18.97;62.34;100940.53;5067224;28;20400;-49
2021/08/09 02:37:14;;;;;;;4.25;1.67;;;;;;;18.97;62.44;100935.19;5044153;28;20400;-49
2021/08/09 02:39:40;;;;;;;2.05;1.45;;;;;;;18.96;62.34;100933.44;5069638;28;20089;-51
2021/08/09 02:42:05;;;;;;;1.70;1.60;;;;;;;18.94;62.46;100935.34;5044740;28;20020;-49
2021/08/09 02:44:31;;;;;;;2.22;1.65;;;;;;;18.93;62.47;100934.44;5063941;28;20025;-49
2021/08/09 02:46:58;;;;;;;1.77;1.38;;;;;;;18.93;62.31;100936.25;5034616;28;20155;-51
2021/08/09 02:49:23;;;;;;;1.70;1.60;;;;;;;18.92;62.39;100931.84;5045468;28;20040;-52
2021/08/09 02:51:49;;;;;;;1.55;1.45;;;;;;;18.92;62.13;100929.16;5062749;28;20028;-51
2021/08/09 02:54:18;;;;;;;1.50;1.40;;;;;;;18.90;62.27;100928.38;5046310;28;20550;-51
2021/08/09 02:56:45;;;;;;;2.17;1.50;;;;;;;18.90;62.27;100928.38;5064492;28;20035;-51
2021/08/09 02:59:10;;;;;;;1.60;1.50;;;;;;;18.90;62.32;100939.06;5062106;28;20374;-51
2021/08/09 03:01:35;;;;;;;1.58;1.48;;;;;;;18.88;62.19;100932.91;5062913;28;20541;-52
2021/08/09 03:04:01;;;;;;;2.22;1.45;;;;;;;18.88;62.18;100938.25;5048856;22;20445;-44
2021/08/09 03:06:27;;;;;;;1.60;1.50;;;;;;;18.87;62.37;100940.03;4997621;28;20103;-44
2021/08/09 03:08:54;;;;;;;1.52;1.25;;;;;;;18.87;62.38;100944.53;4993481;28;20033;-44
2021/08/09 03:11:19;;;;;;;1.70;1.60;;;;;;;18.85;62.13;100942.75;4992699;28;20069;-44
2021/08/09 03:13:49;;;;;;;1.50;1.33;;;;;;;18.84;62.29;100941.03;5001896;28;20493;-45
2021/08/09 03:16:17;;;;;;;1.60;1.50;;;;;;;18.83;62.20;100939.28;5009228;28;20080;-45
2021/08/09 03:18:42;;;;;;;1.40;1.30;;;;;;;18.82;62.31;100940.22;5008582;28;20041;-44
2021/08/09 03:21:08;;;;;;;1.52;1.25;;;;;;;18.81;62.26;100935.81;5010721;28;20025;-44
2021/08/09 03:23:34;;;;;;;1.48;1.38;;;;;;;18.81;62.11;100941.13;5006712;28;20029;-44
2021/08/09 03:25:59;;;;;;;2.67;1.63;;;;;;;18.80;62.31;100944.75;5010057;28;20032;-45
2021/08/09 03:28:25;;;;;;;1.67;1.58;;;;;;;18.80;62.45;100949.22;5008605;28;20588;-45
2021/08/09 03:30:50;;;;;;;1.60;1.50;;;;;;;18.79;62.40;100943.03;5006921;28;20653;-46
2021/08/09 03:33:15;;;;;;;1.50;1.40;;;;;;;18.79;62.35;100942.13;5008714;28;20026;-45
2021/08/09 03:35:41;;;;;;;1.60;1.50;;;;;;;18.77;62.28;100944.88;5006860;28;20034;-45
2021/08/09 03:38:06;;;;;;;1.70;1.60;;;;;;;18.77;62.14;100944.88;5007615;28;20022;-45
2021/08/09 03:40:31;;;;;;;1.48;1.20;;;;;;;18.76;62.33;100947.59;5006172;28;20034;-45
2021/08/09 03:42:57;;;;;;;1.63;1.52;;;;;;;18.75;62.37;100949.41;5005041;28;20061;-45
2021/08/09 03:45:22;;;;;;;1.50;1.40;;;;;;;18.73;62.36;100945.91;5006974;28;20033;-45
2021/08/09 03:47:47;;;;;;;1.48;1.30;;;;;;;18.73;62.31;100945.91;5007877;28;20060;-45
2021/08/09 03:50:15;;;;;;;1.60;1.50;;;;;;;18.72;62.22;100946.88;5005844;28;20025;-45
2021/08/09 03:52:51;;;;;;;1.70;1.60;;;;;;;18.71;62.33;100950.47;5006248;28;20026;-45
2021/08/09 03:55:16;;;;;;;1.67;1.58;;;;;;;18.71;62.34;100950.47;5008861;28;20378;-45
2021/08/09 03:57:41;;;;;;;1.50;1.40;;;;;;;18.69;62.37;100957.66;5009150;28;20040;-45
2021/08/09 04:00:08;;;;;;;2.10;1.48;;;;;;;18.69;62.37;100952.31;5010583;28;20026;-44
2021/08/09 04:02:33;;;;;;;1.40;1.30;;;;;;;18.68;62.43;100950.59;5007593;28;20415;-44
2021/08/09 04:04:58;;;;;;;2.47;1.80;;;;;;;18.67;62.31;100949.69;5000392;28;20018;-45
2021/08/09 04:07:27;;;;;;;2.22;1.70;;;;;;;18.66;62.21;100949.75;5006701;28;20037;-45
2021/08/09 04:09:54;;;;;;;2.05;1.85;;;;;;;18.66;62.37;100960.44;5007991;28;20018;-45
2021/08/09 04:12:20;;;;;;;2.05;1.55;;;;;;;18.66;62.36;100968.47;5010266;28;20026;-43
2021/08/09 04:14:45;;;;;;;1.60;1.50;;;;;;;18.64;62.42;100965.84;5010284;28;20044;-44
2021/08/09 04:17:10;;;;;;;1.77;1.67;;;;;;;18.63;62.24;100961.44;5010227;28;20061;-45
2021/08/09 04:19:36;;;;;;;1.52;1.42;;;;;;;18.63;62.36;100957.88;5010961;28;20489;-44
2021/08/09 04:22:01;;;;;;;2.53;1.67;;;;;;;18.62;62.35;100961.50;5010031;28;20165;-45
2021/08/09 04:24:26;;;;;;;2.35;1.77;;;;;;;18.61;62.31;100965.09;5010404;28;20025;-44
2021/08/09 04:26:52;;;;;;;1.95;1.33;;;;;;;18.61;62.25;100970.44;5010871;28;20021;-45
2021/08/09 04:29:17;;;;;;;1.27;1.20;;;;;;;18.59;62.41;100963.38;5009956;28;20029;-45
2021/08/09 04:31:42;;;;;;;1.48;1.38;;;;;;;18.59;62.51;100967.84;5009353;28;20033;-44
2021/08/09 04:34:08;;;;;;;1.27;1.17;;;;;;;18.57;62.36;100959.88;5009212;28;20108;-44
2021/08/09 04:36:33;;;;;;;1.42;1.33;;;;;;;18.57;62.42;100969.69;5007809;28;20107;-44
2021/08/09 04:39:02;;;;;;;1.98;1.25;;;;;;;18.56;62.28;100970.63;5008997;28;20026;-44
2021/08/09 04:41:27;;;;;;;2.28;1.70;;;;;;;18.56;62.43;100979.50;5009487;28;20644;-45
2021/08/09 04:43:52;;;;;;;1.40;1.30;;;;;;;18.54;62.44;100978.69;5010066;28;20030;-45
2021/08/09 04:46:17;;;;;;;1.70;1.60;;;;;;;18.55;62.53;100982.22;5013554;28;20030;-44
2021/08/09 04:48:43;;;;;;;1.70;1.60;;;;;;;18.54;62.37;100981.34;5013903;28;20029;-44
2021/08/09 04:51:08;;;;;;;2.30;1.52;;;;;;;18.53;62.51;100984.97;5014055;28;20017;-47
2021/08/09 04:53:34;;;;;;;2.13;1.92;;;;;;;18.53;62.46;100989.41;5013331;28;20568;-45
2021/08/09 04:55:59;;;;;;;1.90;1.80;;;;;;;18.51;62.40;100996.63;5014198;28;20095;-44
2021/08/09 04:58:24;;;;;;;2.10;1.50;;;;;;;18.52;62.35;100993.03;5014781;28;20468;-44
2021/08/09 05:00:51;;;;;;;1.77;1.63;;;;;;;18.49;62.32;100983.34;5030418;28;20109;-46
2021/08/09 05:03:17;;;;;;;1.42;1.33;;;;;;;18.49;62.35;100991.34;5011779;28;20076;-44
2021/08/09 05:05:44;;;;;;;2.03;1.60;;;;;;;18.49;62.54;100995.81;5014364;28;20026;-47
2021/08/09 05:08:09;;;;;;;1.60;1.50;;;;;;;18.49;62.41;100998.47;5013094;28;20018;-45
2021/08/09 05:10:35;;;;;;;2.33;1.58;;;;;;;18.49;62.45;101003.81;5010415;28;20029;-46
2021/08/09 05:13:01;;;;;;;2.45;1.70;;;;;;;18.47;62.48;101001.19;5011668;28;20037;-46
2021/08/09 05:15:28;;;;;;;1.50;1.40;;;;;;;18.47;62.57;101001.19;5012432;28;20112;-46
2021/08/09 05:17:54;;;;;;;1.70;1.60;;;;;;;18.45;62.47;100992.41;5014008;28;20029;-46
2021/08/09 05:20:19;;;;;;;1.70;1.60;;;;;;;18.44;62.44;100979.97;5013906;28;20021;-47
2021/08/09 05:22:45;;;;;;;2.00;1.77;;;;;;;18.43;62.51;100986.22;5013854;28;20488;-47
2021/08/09 05:25:10;;;;;;;1.70;1.60;;;;;;;18.44;62.48;100986.16;5013579;28;20025;-47
2021/08/09 05:27:37;;;;;;;1.50;1.40;;;;;;;18.43;62.48;100988.91;5013822;28;20018;-47
2021/08/09 05:30:03;;;;;;;1.80;1.48;;;;;;;18.42;62.56;100984.50;5011713;28;20052;-47
2021/08/09 05:32:29;;;;;;;1.58;1.40;;;;;;;18.41;62.38;100986.28;5013207;28;20585;-47
2021/08/09 05:34:54;;;;;;;2.25;2.05;;;;;;;18.41;62.69;100986.28;5013553;28;20533;-46
2021/08/09 05:37:20;;;;;;;1.45;1.35;;;;;;;18.41;62.47;100982.75;5013409;28;20026;-46
2021/08/09 05:39:45;;;;;;;1.75;1.60;;;;;;;18.40;62.36;100991.66;5013616;28;20111;-47
2021/08/09 05:42:10;;;;;;;2.15;1.95;;;;;;;18.41;62.36;100985.44;5013620;28;20024;-47
2021/08/09 05:44:36;;;;;;;1.58;1.48;;;;;;;18.40;62.56;100989.00;5013004;28;20033;-47
2021/08/09 05:47:01;;;;;;;1.60;1.50;;;;;;;18.37;62.40;100987.31;5013556;28;20018;-47
2021/08/09 05:49:26;;;;;;;1.60;1.50;;;;;;;18.38;62.70;100991.75;5013635;28;20109;-47
2021/08/09 05:51:52;;;;;;;2.17;1.70;;;;;;;18.38;62.38;100990.88;5013305;28;20049;-47
2021/08/09 05:54:17;;;;;;;1.55;1.45;;;;;;;18.38;62.56;100989.09;5011951;28;20032;-45
2021/08/09 05:56:42;;;;;;;2.08;1.77;;;;;;;18.37;62.40;100991.81;5009511;28;20026;-46
2021/08/09 05:59:07;;;;;;;1.30;1.20;;;;;;;18.37;62.51;101000.69;5013036;28;20036;-47
2021/08/09 06:01:33;;;;;;;1.83;1.63;;;;;;;18.36;62.66;100992.72;5011359;28;20508;-47
2021/08/09 06:03:58;;;;;;;1.60;1.50;;;;;;;18.36;62.49;100998.94;5012553;28;20037;-46
2021/08/09 06:06:24;;;;;;;2.08;1.70;;;;;;;18.37;62.42;100994.47;5013121;28;20049;-47
2021/08/09 06:08:49;;;;;;;1.90;1.80;;;;;;;18.36;62.47;100998.06;5012965;28;20481;-47
2021/08/09 06:11:14;;;;;;;2.63;1.50;;;;;;;18.36;62.72;101006.06;5012036;28;20022;-47
2021/08/09 06:13:40;;;;;;;1.85;1.52;;;;;;;18.36;62.59;100995.38;5012473;28;20112;-46
2021/08/09 06:16:05;;;;;;;2.00;1.58;;;;;;;18.34;62.70;100995.44;5012047;28;21020;-47
2021/08/09 06:18:33;;;;;;;1.90;1.70;;;;;;;18.34;62.73;100999.00;5012514;28;20021;-47
2021/08/09 06:21:00;;;;;;;1.83;1.70;;;;;;;18.33;62.54;100989.25;5012767;28;20020;-47
2021/08/09 06:23:25;;;;;;;1.67;1.58;;;;;;;18.33;62.69;100986.59;5009323;28;20508;-47
2021/08/09 06:25:51;;;;;;;1.77;1.65;;;;;;;18.33;62.61;100983.91;5012777;28;20030;-47
2021/08/09 06:28:16;;;;;;;2.95;1.90;;;;;;;18.33;62.74;100983.03;5012528;28;20041;-47
2021/08/09 06:30:41;;;;;;;1.60;1.50;;;;;;;18.32;62.74;100974.16;5011727;28;20029;-46
2021/08/09 06:33:07;;;;;;;2.22;1.63;;;;;;;18.32;62.80;100971.50;5011526;28;20033;-47
2021/08/09 06:35:32;;;;;;;1.65;1.50;;;;;;;18.32;62.77;100971.50;5012313;28;20022;-47
2021/08/09 06:37:57;;;;;;;1.42;1.33;;;;;;;18.32;62.55;100981.28;5012299;28;20030;-47
2021/08/09 06:40:23;;;;;;;1.85;1.75;;;;;;;18.31;62.59;100975.06;5012882;28;20026;-47
2021/08/09 06:42:48;;;;;;;2.00;1.75;;;;;;;18.31;62.74;100980.41;5012447;28;20398;-46
2021/08/09 06:45:13;;;;;;;2.15;1.83;;;;;;;18.31;62.84;100987.56;5010007;28;20084;-47
2021/08/09 06:47:39;;;;;;;1.80;1.70;;;;;;;18.29;62.88;100987.63;5011175;28;20041;-47
2021/08/09 06:50:05;;;;;;;1.83;1.70;;;;;;;18.24;62.96;100983.38;5012079;28;20432;-47
2021/08/09 06:52:34;;;;;;;1.65;1.35;;;;;;;18.29;62.71;100992.97;5011743;28;20026;-47
2021/08/09 06:54:59;;;;;;;1.90;1.80;;;;;;;18.28;62.96;100999.22;5011673;28;20033;-46
2021/08/09 06:57:25;;;;;;;1.58;1.48;;;;;;;18.27;63.02;100994.81;5011741;28;20018;-46
2021/08/09 06:59:50;;;;;;;2.03;1.50;;;;;;;18.28;62.99;100996.53;5012866;28;20022;-46
2021/08/09 07:02:15;;;;;;;1.77;1.67;;;;;;;18.28;63.07;100995.69;5011521;28;20014;-47
2021/08/09 07:04:41;;;;;;;1.98;1.80;;;;;;;18.26;62.85;101001.06;5009775;28;20128;-46
2021/08/09 07:07:06;;;;;;;1.77;1.67;;;;;;;18.26;62.97;100998.41;5011137;28;20067;-47
2021/08/09 07:09:31;;;;;;;2.38;1.70;;;;;;;18.27;63.00;100999.28;5010598;28;20026;-47
2021/08/09 07:11:56;;;;;;;2.20;1.92;;;;;;;18.26;62.93;101002.88;5011557;28;20026;-47
2021/08/09 07:14:22;;;;;;;2.20;2.00;;;;;;;18.26;63.10;101009.09;5011428;28;20045;-47
2021/08/09 07:16:49;;;;;;;1.95;1.85;;;;;;;18.26;63.01;101009.09;5009551;28;20075;-46
2021/08/09 07:19:15;;;;;;;1.80;1.70;;;;;;;18.24;62.94;101000.25;5011945;28;20058;-47
2021/08/09 07:21:40;;;;;;;1.92;1.58;;;;;;;18.25;63.08;100999.34;5008395;28;20076;-47
2021/08/09 07:24:06;;;;;;;1.92;1.60;;;;;;;18.27;62.87;101009.97;5006543;28;20036;-46
2021/08/09 07:26:32;;;;;;;1.75;1.63;;;;;;;18.26;62.93;101003.75;5011837;28;20050;-46
2021/08/09 07:28:59;;;;;;;1.73;1.63;;;;;;;18.26;63.03;101013.53;5009395;28;21443;-45
2021/08/09 07:31:25;;;;;;;1.70;1.60;;;;;;;18.25;62.96;101007.34;5010989;28;20485;-46
2021/08/09 07:33:50;;;;;;;1.80;1.70;;;;;;;18.26;63.07;101013.53;5010859;28;20061;-47
2021/08/09 07:36:15;;;;;;;2.28;2.13;;;;;;;18.24;62.87;101018.94;5011375;28;20037;-46
2021/08/09 07:38:41;;;;;;;1.70;1.60;;;;;;;18.21;63.24;101017.25;5011657;28;20057;-47
2021/08/09 07:41:06;;;;;;;2.15;1.95;;;;;;;18.21;63.15;101017.25;5011559;28;20093;-47
2021/08/09 07:43:32;;;;;;;2.78;1.90;;;;;;;18.22;63.04;101010.13;5009718;28;20545;-46
2021/08/09 07:45:57;;;;;;;2.40;2.20;;;;;;;18.21;62.95;101011.06;5011160;28;20033;-47
2021/08/09 07:48:24;;;;;;;1.85;1.75;;;;;;;18.22;63.03;101004.78;5011190;28;20029;-47
2021/08/09 07:50:49;;;;;;;2.22;2.03;;;;;;;18.21;63.13;101016.41;5016435;28;20103;-45
2021/08/09 07:53:15;;;;;;;1.70;1.60;;;;;;;18.23;63.02;101008.34;5012074;28;20068;-45
2021/08/09 07:55:40;;;;;;;2.10;1.88;;;;;;;18.24;62.98;101007.41;5011338;28;20090;-44
2021/08/09 07:58:05;;;;;;;2.58;1.90;;;;;;;18.23;63.18;101013.69;5010880;28;20037;-45
2021/08/09 08:00:31;;;;;;;2.30;2.10;;;;;;;18.20;63.13;100998.63;5010999;28;20033;-44
2021/08/09 08:02:56;;;;;;;1.70;1.60;;;;;;;18.23;63.25;100998.50;5011102;28;20013;-45
2021/08/09 08:05:21;;;;;;;2.22;2.03;;;;;;;18.23;63.05;101008.34;5009104;28;20113;-44
2021/08/09 08:07:47;;;;;;;2.40;1.88;;;;;;;18.20;63.19;101003.97;5009677;28;20140;-45
2021/08/09 08:10:12;;;;;;;1.88;1.77;;;;;;;18.22;63.01;101004.78;5009976;28;20018;-44
2021/08/09 08:12:38;;;;;;;2.17;1.90;;;;;;;18.24;63.06;100994.06;5009257;28;20026;-44
2021/08/09 08:15:07;;;;;;;1.60;1.50;;;;;;;18.23;63.18;100997.66;5010593;28;20444;-44
2021/08/09 08:17:33;;;;;;;2.58;1.98;;;;;;;18.23;63.16;100993.19;5010714;28;20028;-44
2021/08/09 08:19:59;;;;;;;1.92;1.77;;;;;;;18.23;63.14;100990.50;5009917;28;20049;-45
2021/08/09 08:22:24;;;;;;;2.67;1.77;;;;;;;18.23;63.07;100987.84;5010712;28;20095;-44
2021/08/09 08:24:49;;;;;;;2.33;2.00;;;;;;;18.23;63.05;100995.84;5010803;28;20022;-44
2021/08/09 08:27:15;;;;;;;1.80;1.70;;;;;;;18.24;63.09;101000.25;5010694;28;20068;-44
2021/08/09 08:29:40;;;;;;;2.28;1.70;;;;;;;18.23;63.41;100997.66;5010739;28;20390;-45
2021/08/09 08:32:06;;;;;;;2.03;1.85;;;;;;;18.20;63.40;100998.63;5009403;28;20045;-45
2021/08/09 08:34:31;;;;;;;3.13;2.00;;;;;;;18.18;63.27;100989.81;5007839;28;20022;-45
2021/08/09 08:36:57;;;;;;;3.40;2.03;;;;;;;18.23;63.36;100998.50;5010640;28;20106;-44
2021/08/09 08:39:22;;;;;;;2.13;1.80;;;;;;;18.21;63.40;101001.22;5010855;28;20080;-44
2021/08/09 08:41:47;;;;;;;1.63;1.52;;;;;;;18.22;62.85;100996.78;5010913;28;20018;-44
2021/08/09 08:44:18;;;;;;;1.90;1.80;;;;;;;18.21;63.55;101005.72;5010433;28;20060;-44
2021/08/09 08:46:44;;;;;;;2.03;1.88;;;;;;;18.21;63.45;100995.03;5010266;28;20053;-45
2021/08/09 08:49:14;;;;;;;2.47;1.80;;;;;;;18.20;63.70;101004.84;5010025;28;20026;-44
2021/08/09 08:51:41;;;;;;;2.17;1.98;;;;;;;18.22;63.71;101007.47;5010748;28;20025;-45
2021/08/09 08:54:07;;;;;;;1.80;1.70;;;;;;;18.21;63.38;101006.56;5009065;28;20140;-45
2021/08/09 08:56:36;;;;;;;3.05;2.03;;;;;;;18.22;63.61;101012.78;5009947;28;20101;-45
2021/08/09 08:59:01;;;;;;;3.40;1.88;;;;;;;18.23;63.55;101009.19;5010005;28;20034;-44
2021/08/09 09:01:34;;;;;;;2.33;2.13;;;;;;;18.24;63.99;101015.41;5010390;28;20044;-45
2021/08/09 09:03:59;;;;;;;1.95;1.75;;;;;;;18.23;63.77;101014.53;5009946;28;20033;-44
2021/08/09 09:06:25;;;;;;;1.98;1.80;;;;;;;18.22;63.75;101012.78;5054783;23;20041;-51
2021/08/09 09:08:50;;;;;;;2.05;1.85;;;;;;;18.24;63.82;101016.25;5070260;28;20491;-50
2021/08/09 09:11:37;;;;;;;1.95;1.85;;;;;;;18.24;63.67;101018.09;5028091;28;20021;-51
2021/08/09 09:14:06;;;;;;;2.35;1.90;;;;;;;18.24;63.79;101016.25;5049636;28;20025;-52
2021/08/09 09:16:46;;;;;;;2.08;1.88;;;;;;;18.24;63.68;101016.25;5068732;28;20494;-52
2021/08/09 09:19:42;;;;;;;2.10;1.90;;;;;;;18.24;63.83;101024.28;5063014;28;20024;-52
2021/08/09 09:22:31;;;;;;;2.22;2.03;;;;;;;18.24;63.73;101024.28;5058157;28;20025;-53
2021/08/09 09:24:57;;;;;;;2.50;2.30;;;;;;;18.24;63.81;101023.41;5044133;28;20117;-52
2021/08/09 09:27:30;;;;;;;4.70;2.58;;;;;;;18.23;63.79;101014.53;5069933;28;20021;-54
2021/08/09 09:29:56;;;;;;;2.35;2.15;;;;;;;18.24;63.81;101028.75;5046618;28;20101;-52
2021/08/09 09:32:23;;;;;;;1.88;1.77;;;;;;;18.25;63.78;101034.03;5064004;28;20100;-53
2021/08/09 09:34:48;;;;;;;2.65;2.45;;;;;;;18.25;63.90;101034.03;5053086;28;20594;-53
2021/08/09 09:37:27;;;;;;;1.92;1.83;;;;;;;18.27;63.78;101040.19;5065099;28;20123;-53
2021/08/09 09:39:53;;;;;;;2.67;2.03;;;;;;;18.27;63.83;101037.53;5054774;28;20029;-53
2021/08/09 09:42:18;;;;;;;2.47;2.28;;;;;;;18.28;63.98;101031.25;5065713;28;20058;-54
2021/08/09 09:44:44;;;;;;;2.40;1.80;;;;;;;18.26;63.83;101027.78;5063619;28;20032;-52
2021/08/09 09:47:20;;;;;;;3.38;2.00;;;;;;;18.27;63.77;101032.19;5052499;28;20095;-52
2021/08/09 09:49:47;;;;;;;2.28;1.60;;;;;;;18.29;63.84;101029.47;5065480;28;20040;-55
2021/08/09 09:52:39;;;;;;;2.30;2.05;;;;;;;18.29;63.77;101029.47;5068321;28;20380;-53
2021/08/09 09:55:07;;;;;;;3.83;2.00;;;;;;;18.27;63.88;101032.19;5056299;28;20078;-53
2021/08/09 09:57:32;;;;;;;2.60;2.00;;;;;;;18.29;63.73;101029.47;5071444;28;20029;-52
2021/08/09 09:59:59;;;;;;;2.33;2.05;;;;;;;18.28;63.86;101039.25;5035550;28;20025;-52
2021/08/09 10:02:25;;;;;;;2.20;2.00;;;;;;;18.29;63.77;101038.34;5070251;28;20467;-51
2021/08/09 10:04:51;;;;;;;4.25;2.13;;;;;;;18.28;63.80;101039.25;5070410;28;20027;-52
2021/08/09 10:07:19;;;;;;;2.50;2.30;;;;;;;18.31;63.79;101036.47;5062929;28;20016;-53
2021/08/09 10:09:47;;;;;;;2.50;2.30;;;;;;;18.31;63.81;101032.97;5069519;28;20128;-51
2021/08/09 10:12:13;;;;;;;2.78;2.35;;;;;;;18.29;63.98;101029.47;5070013;28;20150;-53
2021/08/09 10:14:39;;;;;;;2.53;2.33;;;;;;;18.31;63.76;101023.13;5037110;28;20116;-53
2021/08/09 10:17:04;;;;;;;2.17;2.05;;;;;;;18.30;63.89;101020.50;5068644;28;20032;-54
2021/08/09 10:19:30;;;;;;;2.97;2.50;;;;;;;18.31;63.82;101017.78;5068163;28;20023;-53
2021/08/09 10:21:55;;;;;;;2.65;2.03;;;;;;;18.33;63.83;101020.41;5070090;28;20024;-57
2021/08/09 10:24:37;;;;;;;2.10;2.00;;;;;;;18.35;63.72;101018.56;5054349;28;20051;-52
2021/08/09 10:27:03;;;;;;;3.40;2.33;;;;;;;18.32;63.61;101011.53;5068502;28;20103;-54
2021/08/09 10:29:28;;;;;;;2.25;2.15;;;;;;;18.32;63.66;101019.56;5066978;28;20108;-53
2021/08/09 10:32:17;;;;;;;2.05;1.95;;;;;;;18.32;63.78;101014.22;5070096;28;20025;-52
2021/08/09 10:34:43;;;;;;;3.03;2.40;;;;;;;18.33;63.75;101021.28;5066260;28;20024;-53
2021/08/09 10:37:16;;;;;;;2.30;2.10;;;;;;;18.36;63.64;101019.41;5063548;28;20123;-53
2021/08/09 10:39:54;;;;;;;3.33;2.15;;;;;;;18.33;63.80;101015.94;5065331;28;20017;-54
2021/08/09 10:42:40;;;;;;;2.33;2.13;;;;;;;18.35;63.64;101023.91;5067289;28;20017;-53
2021/08/09 10:45:07;;;;;;;3.38;2.60;;;;;;;18.34;63.67;101012.34;5068273;28;20498;-52
2021/08/09 10:47:53;;;;;;;2.28;2.08;;;;;;;18.36;63.79;101008.75;5036256;28;20032;-50
2021/08/09 10:50:43;;;;;;;3.05;2.58;;;;;;;18.37;63.52;101010.50;5067927;28;20504;-55
2021/08/09 10:53:28;;;;;;;2.58;2.38;;;;;;;18.38;63.52;101017.56;5071010;28;20016;-52
2021/08/09 10:55:54;;;;;;;2.40;2.20;;;;;;;18.36;63.73;101017.63;5068079;28;20024;-52
2021/08/09 10:58:41;;;;;;;2.10;1.90;;;;;;;18.38;63.59;101017.56;5071745;28;20069;-51
2021/08/09 11:01:14;;;;;;;2.90;2.33;;;;;;;18.38;63.87;101022.91;5066839;28;20089;-53
2021/08/09 11:04:06;;;;;;;2.58;2.38;;;;;;;18.41;63.62;101022.81;5059828;28;20119;-54
2021/08/09 11:06:51;;;;;;;2.90;2.47;;;;;;;18.38;63.65;101023.81;5064197;28;20036;-51
2021/08/09 11:09:31;;;;;;;2.65;2.45;;;;;;;18.36;63.62;101016.75;5065336;28;20103;-51
2021/08/09 11:12:35;;;;;;;1.92;1.70;;;;;;;18.41;63.68;101014.81;5065773;28;20504;-50
2021/08/09 11:15:02;;;;;;;2.30;2.10;;;;;;;18.40;63.54;101023.72;5048075;28;20070;-53
2021/08/09 11:17:30;;;;;;;2.33;2.13;;;;;;;18.39;63.56;101016.63;5066862;28;20062;-53
2021/08/09 11:20:14;;;;;;;2.35;2.15;;;;;;;18.40;63.70;101018.38;5066975;28;20029;-53
2021/08/09 11:22:48;;;;;;;2.20;2.00;;;;;;;18.41;63.56;101017.47;5065453;28;20031;-53
2021/08/09 11:25:23;;;;;;;2.78;2.33;;;;;;;18.43;63.63;101021.81;5062093;28;20017;-54
2021/08/09 11:28:19;;;;;;;6.90;2.60;;;;;;;18.41;63.47;101017.47;5068050;28;20430;-52